Maria Noelle — WDD9564 — position and weather

sailwx.info

Track history (hours):
 
Tides and Currents Weather Stations Pressure Air Temp Water Temp Dewpoint Dewpoint Depression Visibility Wind Speed Wind Dir Waves Ship Positions

Maria Noelle

More information available from US FCC via Universal Licensing System and Coast Guard Vessel Documentation Center.

Last reported at 2014-Jul-25 10:30 UTC. Time now 2014-Jul-29 10:54 UTC.
Position N 39°58' W 073°26'.

Length 26 m.

Type: Fishing. MMSI: 367313170.

Date/timePositionNaut miles runAvg speedWind from/ knotsBaromVisibWave heightAir tempDewpointWater temp
2014-Jul-25 10:30N 39°58' W 073°26'4 4.2
2014-Jul-25 09:33N 40°01' W 073°29'23 7.3
2014-Jul-25 06:20N 40°05' W 073°59'27 0.6
2014-Jul-23 10:34N 39°58' W 073°26'4 4.0
2014-Jul-23 09:33N 40°01' W 073°29'5 5.2
2014-Jul-23 08:34N 40°02' W 073°35'8 8.2
2014-Jul-23 07:34N 40°03' W 073°46'8 8.4
2014-Jul-23 06:33N 40°05' W 073°57'5 4.5
2014-Jul-23 05:34N 40°06' W 074°02'0 0.0
2014-Jul-23 04:34N 40°06' W 074°02'0 0.0
2014-Jul-23 03:28N 40°06' W 074°02'0 0.0
2014-Jul-23 02:34N 40°06' W 074°02'0 0.0
2014-Jul-23 01:33N 40°06' W 074°02'0 0.0
2014-Jul-23 00:24N 40°06' W 074°02'0 0.0
2014-Jul-22 23:24N 40°06' W 074°02'4 1.2
2014-Jul-22 20:24N 40°05' W 073°58'7 7.8
2014-Jul-22 19:33N 40°04' W 073°49'14 1.4
2014-Jul-22 09:11N 40°01' W 073°31'4 6.4
2014-Jul-22 08:33N 40°02' W 073°37'8 8.1
2014-Jul-22 07:33N 40°04' W 073°47'8 8.3
2014-Jul-22 06:33N 40°05' W 073°57'4 0.3
2014-Jul-21 18:28N 40°06' W 074°02'  
2014-Jul-19 12:11N 40°06' W 074°02'0 0.0
2014-Jul-19 11:29N 40°06' W 074°02'4 4.3
2014-Jul-19 10:33N 40°02' W 074°01'4 4.0
2014-Jul-19 09:33N 39°58' W 074°01'3 2.9
2014-Jul-19 08:33N 39°55' W 074°01'2 2.5
2014-Jul-19 07:33N 39°53' W 074°02'3 2.8
2014-Jul-19 06:33N 39°50' W 074°03'3 2.8
2014-Jul-19 05:33N 39°47' W 074°03'2 2.1
2014-Jul-19 04:33N 39°49' W 074°03'3 3.1
2014-Jul-19 03:33N 39°52' W 074°02'3 3.0
2014-Jul-19 02:33N 39°55' W 074°02'11 0.4
2014-Jul-17 21:23N 40°06' W 074°02'19 3.6
2014-Jul-17 16:13N 40°02' W 073°38'7 4.0
2014-Jul-17 14:33N 40°01' W 073°30'1 0.5
2014-Jul-17 13:33N 40°01' W 073°31'1 1.1
2014-Jul-17 12:33N 40°01' W 073°29'1 1.3
2014-Jul-17 11:33N 39°60' W 073°28'0 0.1
2014-Jul-17 10:33N 39°60' W 073°28'2 2.3
2014-Jul-17 09:33N 40°01' W 073°30'1 1.0
2014-Jul-17 08:33N 40°01' W 073°32'3 2.7
2014-Jul-17 07:33N 40°02' W 073°35'0 0.5
2014-Jul-17 06:33N 40°02' W 073°36'9 8.5
2014-Jul-17 05:33N 40°04' W 073°47'9 8.6
2014-Jul-17 04:30N 40°05' W 073°58'7 0.2
2014-Jul-15 18:32N 40°04' W 073°49'9 8.0
2014-Jul-15 17:28N 40°02' W 073°38'4 4.3
2014-Jul-15 16:33N 40°01' W 073°33'2 1.7
2014-Jul-15 15:31N 40°02' W 073°31'4 3.5
2014-Jul-15 14:28N 39°59' W 073°27'0 0.3
2014-Jul-15 13:33N 39°59' W 073°27'4 3.8
2014-Jul-15 12:32N 40°02' W 073°31'3 3.4
2014-Jul-15 11:32N 39°60' W 073°27'1 0.5
2014-Jul-15 10:33N 39°59' W 073°28'  
Track history (hours):
 
Tides and Currents Weather Stations Pressure Air Temp Water Temp Dewpoint Dewpoint Depression Visibility Wind Speed Wind Dir Waves Ship Positions

Maria Noelle

More information available from US FCC via Universal Licensing System and Coast Guard Vessel Documentation Center.

Last reported at 2014-Jul-25 10:30 UTC. Time now 2014-Jul-29 10:54 UTC.
Position N 39°58' W 073°26'.

Length 26 m.

Type: Fishing. MMSI: 367313170.

Date/timePositionNaut miles runAvg speedWind from/ knotsBaromVisibWave heightAir tempDewpointWater temp
2014-Jul-25 10:30N 39°58' W 073°26'4 4.2
2014-Jul-25 09:33N 40°01' W 073°29'23 7.3
2014-Jul-25 06:20N 40°05' W 073°59'27 0.6
2014-Jul-23 10:34N 39°58' W 073°26'4 4.0
2014-Jul-23 09:33N 40°01' W 073°29'5 5.2
2014-Jul-23 08:34N 40°02' W 073°35'8 8.2
2014-Jul-23 07:34N 40°03' W 073°46'8 8.4
2014-Jul-23 06:33N 40°05' W 073°57'5 4.5
2014-Jul-23 05:34N 40°06' W 074°02'0 0.0
2014-Jul-23 04:34N 40°06' W 074°02'0 0.0
2014-Jul-23 03:28N 40°06' W 074°02'0 0.0
2014-Jul-23 02:34N 40°06' W 074°02'0 0.0
2014-Jul-23 01:33N 40°06' W 074°02'0 0.0
2014-Jul-23 00:24N 40°06' W 074°02'0 0.0
2014-Jul-22 23:24N 40°06' W 074°02'4 1.2
2014-Jul-22 20:24N 40°05' W 073°58'7 7.8
2014-Jul-22 19:33N 40°04' W 073°49'14 1.4
2014-Jul-22 09:11N 40°01' W 073°31'4 6.4
2014-Jul-22 08:33N 40°02' W 073°37'8 8.1
2014-Jul-22 07:33N 40°04' W 073°47'8 8.3
2014-Jul-22 06:33N 40°05' W 073°57'4 0.3
2014-Jul-21 18:28N 40°06' W 074°02'  
2014-Jul-19 12:11N 40°06' W 074°02'0 0.0
2014-Jul-19 11:29N 40°06' W 074°02'4 4.3
2014-Jul-19 10:33N 40°02' W 074°01'4 4.0
2014-Jul-19 09:33N 39°58' W 074°01'3 2.9
2014-Jul-19 08:33N 39°55' W 074°01'2 2.5
2014-Jul-19 07:33N 39°53' W 074°02'3 2.8
2014-Jul-19 06:33N 39°50' W 074°03'3 2.8
2014-Jul-19 05:33N 39°47' W 074°03'2 2.1
2014-Jul-19 04:33N 39°49' W 074°03'3 3.1
2014-Jul-19 03:33N 39°52' W 074°02'3 3.0
2014-Jul-19 02:33N 39°55' W 074°02'11 0.4
2014-Jul-17 21:23N 40°06' W 074°02'19 3.6
2014-Jul-17 16:13N 40°02' W 073°38'7 4.0
2014-Jul-17 14:33N 40°01' W 073°30'1 0.5
2014-Jul-17 13:33N 40°01' W 073°31'1 1.1
2014-Jul-17 12:33N 40°01' W 073°29'1 1.3
2014-Jul-17 11:33N 39°60' W 073°28'0 0.1
2014-Jul-17 10:33N 39°60' W 073°28'2 2.3
2014-Jul-17 09:33N 40°01' W 073°30'1 1.0
2014-Jul-17 08:33N 40°01' W 073°32'3 2.7
2014-Jul-17 07:33N 40°02' W 073°35'0 0.5
2014-Jul-17 06:33N 40°02' W 073°36'9 8.5
2014-Jul-17 05:33N 40°04' W 073°47'9 8.6
2014-Jul-17 04:30N 40°05' W 073°58'7 0.2
2014-Jul-15 18:32N 40°04' W 073°49'9 8.0
2014-Jul-15 17:28N 40°02' W 073°38'4 4.3
2014-Jul-15 16:33N 40°01' W 073°33'2 1.7
2014-Jul-15 15:31N 40°02' W 073°31'4 3.5
2014-Jul-15 14:28N 39°59' W 073°27'0 0.3
2014-Jul-15 13:33N 39°59' W 073°27'4 3.8
2014-Jul-15 12:32N 40°02' W 073°31'3 3.4
2014-Jul-15 11:32N 39°60' W 073°27'1 0.5
2014-Jul-15 10:33N 39°59' W 073°28'  

Dump ship's entire track history